createdAt,value
2023-03-17T00:00:50.701Z,6.70
2023-03-17T00:03:31.817Z,8.10
2023-03-17T00:06:02.356Z,7.70
2023-03-17T00:08:36.164Z,6.90
2023-03-17T00:11:04.808Z,6.80
2023-03-17T00:13:33.818Z,4.60
2023-03-17T00:16:07.736Z,6.80
2023-03-17T00:18:37.187Z,8.10
2023-03-17T00:21:06.179Z,4.60
2023-03-17T00:23:35.552Z,6.50
2023-03-17T00:26:03.919Z,9.70
2023-03-17T00:28:32.444Z,5.40
2023-03-17T00:31:03.558Z,5.90
2023-03-17T00:33:34.862Z,4.80
2023-03-17T00:36:03.692Z,6.90
2023-03-17T00:38:32.177Z,4.80
2023-03-17T00:41:00.713Z,6.00
2023-03-17T00:43:30.743Z,8.10
2023-03-17T00:45:59.172Z,6.20
2023-03-17T00:48:30.138Z,5.00
2023-03-17T00:50:58.774Z,8.20
2023-03-17T00:53:30.688Z,6.90
2023-03-17T00:56:00.987Z,4.60
2023-03-17T00:58:33.049Z,6.10
2023-03-17T01:01:01.622Z,5.40
2023-03-17T01:03:31.279Z,5.00
2023-03-17T01:06:00.575Z,6.60
2023-03-17T01:08:30.331Z,4.20
2023-03-17T01:10:59.667Z,4.20
2023-03-17T01:13:28.698Z,4.70
2023-03-17T01:15:57.944Z,6.00
2023-03-17T01:18:26.368Z,5.70
2023-03-17T01:20:54.776Z,6.10
2023-03-17T01:23:23.242Z,4.30
2023-03-17T01:25:51.872Z,7.30
2023-03-17T01:28:21.042Z,4.40
2023-03-17T01:30:50.193Z,4.90
2023-03-17T01:33:20.041Z,7.50
2023-03-17T01:35:52.284Z,3.30
2023-03-17T01:42:01.646Z,5.40
2023-03-17T01:44:30.930Z,5.70
2023-03-17T01:47:01.270Z,5.60
2023-03-17T01:49:35.688Z,5.20
2023-03-17T01:52:16.234Z,5.30
2023-03-17T01:54:57.024Z,3.30
2023-03-17T01:57:34.322Z,5.30
2023-03-17T02:00:20.527Z,5.50
2023-03-17T02:02:51.962Z,6.40
2023-03-17T02:05:24.296Z,6.20
2023-03-17T02:07:54.622Z,6.40
2023-03-17T02:10:30.027Z,7.70
2023-03-17T02:13:04.105Z,5.20
2023-03-17T02:15:46.393Z,6.20
2023-03-17T02:18:15.831Z,7.80
2023-03-17T02:20:47.205Z,5.80
2023-03-17T02:23:24.391Z,8.80
2023-03-17T02:25:54.240Z,5.70
2023-03-17T02:28:31.002Z,7.00
2023-03-17T02:33:29.983Z,7.60
2023-03-17T02:35:58.350Z,6.50
2023-03-17T02:38:27.317Z,6.10
2023-03-17T02:40:56.690Z,6.00
2023-03-17T02:43:26.017Z,10.40
2023-03-17T02:45:57.722Z,7.40
2023-03-17T02:48:27.539Z,10.20
2023-03-17T02:50:56.940Z,8.10
2023-03-17T02:53:25.339Z,7.30
2023-03-17T02:55:53.801Z,7.30
2023-03-17T02:58:22.112Z,9.00
2023-03-17T03:00:50.604Z,8.70
2023-03-17T03:03:19.389Z,8.60
2023-03-17T03:05:48.044Z,6.50
2023-03-17T03:08:17.308Z,6.10
2023-03-17T03:10:47.063Z,7.50
2023-03-17T03:13:16.315Z,6.70
2023-03-17T03:15:45.138Z,9.60
2023-03-17T03:18:13.595Z,6.50
2023-03-17T03:20:44.784Z,7.80
2023-03-17T03:23:15.495Z,7.50
2023-03-17T03:25:47.081Z,7.30
2023-03-17T03:28:15.726Z,8.40
2023-03-17T03:30:45.661Z,5.50
2023-03-17T03:33:16.277Z,7.40
2023-03-17T03:35:44.827Z,8.30
2023-03-17T03:38:14.165Z,11.90
2023-03-17T03:40:42.518Z,11.10
2023-03-17T03:43:22.530Z,9.50
2023-03-17T03:45:52.044Z,14.20
2023-03-17T03:48:21.390Z,11.60
2023-03-17T03:50:50.039Z,13.40
2023-03-17T03:53:18.327Z,6.30
2023-03-17T03:55:46.943Z,10.10
2023-03-17T03:58:15.678Z,7.80
2023-03-17T04:00:44.169Z,7.90
2023-03-17T04:03:13.615Z,13.30
2023-03-17T04:05:42.210Z,9.00
2023-03-17T04:08:11.587Z,11.60
2023-03-17T04:10:40.258Z,7.00
2023-03-17T04:13:08.759Z,6.70
2023-03-17T04:15:37.798Z,6.10
2023-03-17T04:18:06.216Z,8.30
2023-03-17T04:20:34.738Z,8.60
2023-03-17T04:23:03.158Z,11.60
2023-03-17T04:25:31.823Z,10.70
2023-03-17T04:31:39.917Z,7.30
2023-03-17T04:34:15.881Z,13.20
2023-03-17T04:36:45.892Z,8.40
2023-03-17T04:39:15.817Z,8.90
2023-03-17T04:41:44.371Z,10.10
2023-03-17T04:44:13.247Z,12.50
2023-03-17T04:46:42.204Z,12.10
2023-03-17T04:49:10.662Z,11.20
2023-03-17T04:51:39.218Z,8.20
2023-03-17T04:54:10.541Z,11.90
2023-03-17T04:56:40.774Z,10.80
2023-03-17T04:59:09.403Z,10.90
2023-03-17T05:01:39.289Z,11.50
2023-03-17T05:04:09.102Z,11.10
2023-03-17T05:06:38.550Z,13.80
2023-03-17T05:09:07.140Z,17.80
2023-03-17T05:11:35.658Z,14.60
2023-03-17T05:14:04.181Z,13.40
2023-03-17T05:16:32.641Z,9.50
2023-03-17T05:19:01.185Z,14.20
2023-03-17T05:21:29.710Z,14.40
2023-03-17T05:23:58.017Z,11.20
2023-03-17T05:26:27.326Z,15.10
2023-03-17T05:28:55.831Z,12.40
2023-03-17T05:31:24.420Z,12.00
2023-03-17T05:33:52.798Z,11.40
2023-03-17T05:36:21.440Z,16.90
2023-03-17T05:38:49.815Z,11.60
2023-03-17T05:41:18.346Z,13.30
2023-03-17T05:43:47.009Z,15.90
2023-03-17T05:46:15.685Z,17.40
2023-03-17T05:48:44.514Z,14.10
2023-03-17T05:51:12.851Z,16.60
2023-03-17T05:53:41.918Z,12.10
2023-03-17T05:56:10.488Z,14.30
2023-03-17T05:58:43.071Z,17.00
2023-03-17T06:01:11.517Z,16.10
2023-03-17T06:03:40.040Z,17.00
2023-03-17T06:06:10.475Z,18.50
2023-03-17T06:08:39.015Z,17.80
2023-03-17T06:11:07.520Z,16.60
2023-03-17T06:13:36.174Z,17.60
2023-03-17T06:16:05.009Z,27.60
2023-03-17T06:18:33.578Z,16.80
2023-03-17T06:21:02.387Z,21.60
2023-03-17T06:23:31.272Z,18.10
2023-03-17T06:25:59.755Z,16.80
2023-03-17T06:28:28.137Z,21.70
2023-03-17T06:30:56.577Z,20.10
2023-03-17T06:33:27.523Z,16.60
2023-03-17T06:35:56.558Z,18.80
2023-03-17T06:38:25.810Z,21.30
2023-03-17T06:40:54.481Z,24.30
2023-03-17T06:43:25.053Z,22.40
2023-03-17T06:45:53.670Z,26.40
2023-03-17T06:48:23.707Z,23.40
2023-03-17T06:50:52.070Z,25.60
2023-03-17T06:53:20.955Z,20.90
2023-03-17T06:55:49.513Z,17.10
2023-03-17T06:58:18.074Z,21.50
2023-03-17T07:00:49.511Z,25.10
2023-03-17T07:03:18.060Z,23.10
2023-03-17T07:05:47.114Z,29.60
2023-03-17T07:08:16.024Z,24.50
2023-03-17T07:10:46.188Z,22.80
2023-03-17T07:13:14.923Z,27.50
2023-03-17T07:15:45.570Z,21.30
2023-03-17T07:21:52.506Z,17.20
2023-03-17T07:24:21.040Z,17.50
2023-03-17T07:26:53.644Z,18.30
2023-03-17T07:29:22.873Z,20.80
2023-03-17T07:31:51.454Z,18.20
2023-03-17T07:34:22.573Z,19.50
2023-03-17T07:36:51.249Z,16.10
2023-03-17T07:39:20.250Z,16.30
2023-03-17T07:41:53.325Z,12.50
2023-03-17T07:44:23.338Z,15.80
2023-03-17T07:46:52.316Z,11.40
2023-03-17T07:49:38.166Z,15.80
2023-03-17T07:52:10.668Z,14.30
2023-03-17T07:54:42.196Z,13.60
2023-03-17T07:57:12.384Z,12.50
2023-03-17T07:59:41.907Z,11.90
2023-03-17T08:02:18.301Z,13.20
2023-03-17T08:04:47.391Z,8.20
2023-03-17T08:07:15.788Z,12.20
2023-03-17T08:09:44.134Z,11.40
2023-03-17T08:12:12.978Z,12.20
2023-03-17T08:14:41.812Z,9.50
2023-03-17T08:17:10.689Z,6.50
2023-03-17T08:19:39.626Z,15.00
2023-03-17T08:22:08.263Z,7.30
2023-03-17T08:24:43.159Z,8.50
2023-03-17T08:27:11.846Z,5.40
2023-03-17T08:29:40.600Z,10.20
2023-03-17T08:32:09.693Z,9.10
2023-03-17T08:34:38.762Z,14.70
2023-03-17T08:37:09.445Z,8.10
2023-03-17T08:39:40.711Z,10.20
2023-03-17T08:42:09.524Z,9.80
2023-03-17T08:44:39.271Z,8.90
2023-03-17T08:47:08.816Z,9.10
2023-03-17T08:49:38.968Z,11.00
2023-03-17T08:52:08.324Z,10.90
2023-03-17T08:54:37.656Z,8.20
2023-03-17T08:57:08.662Z,11.20
2023-03-17T08:59:37.463Z,9.10
2023-03-17T09:02:07.757Z,8.80
2023-03-17T09:04:39.886Z,7.70
2023-03-17T09:07:10.614Z,10.20
2023-03-17T09:09:39.888Z,6.40
2023-03-17T09:12:09.693Z,7.00
2023-03-17T09:14:43.803Z,9.90
2023-03-17T09:17:14.810Z,5.70
2023-03-17T09:19:43.856Z,9.50
2023-03-17T09:22:14.977Z,9.00
2023-03-17T09:24:43.476Z,7.10
2023-03-17T09:27:11.993Z,9.30
2023-03-17T09:29:42.508Z,9.30
2023-03-17T09:32:11.479Z,11.80
2023-03-17T09:34:40.026Z,7.90
2023-03-17T09:37:10.107Z,7.20
2023-03-17T09:39:38.742Z,8.70
2023-03-17T09:42:23.136Z,9.80
2023-03-17T09:45:56.545Z,11.00
2023-03-17T09:48:25.568Z,14.40
2023-03-17T09:51:14.629Z,7.90
2023-03-17T09:54:02.889Z,7.90
2023-03-17T09:56:36.984Z,4.70
2023-03-17T09:59:15.617Z,7.00
2023-03-17T10:01:44.276Z,7.90
2023-03-17T10:04:12.878Z,8.20
2023-03-17T10:06:50.405Z,8.10
2023-03-17T10:09:26.171Z,8.20
2023-03-17T10:12:04.444Z,5.10
2023-03-17T10:14:41.822Z,7.60
2023-03-17T10:17:18.683Z,7.90
2023-03-17T10:20:05.744Z,5.10
2023-03-17T10:22:46.475Z,4.90
2023-03-17T10:25:28.188Z,9.70
2023-03-17T10:28:09.218Z,10.50
2023-03-17T10:30:38.405Z,8.50
2023-03-17T10:33:09.759Z,5.20
2023-03-17T10:35:39.743Z,5.40
2023-03-17T10:38:34.800Z,8.50
2023-03-17T10:41:12.717Z,5.20
2023-03-17T10:43:47.710Z,6.50
2023-03-17T10:46:26.316Z,5.60
2023-03-17T10:48:58.587Z,7.20
2023-03-17T10:51:37.838Z,10.70
2023-03-17T10:54:17.894Z,7.90
